Time;durP1;ratioP1;P1;durP2;ratioP2;P2;SDS_P1;SDS_P2;PMS_P1;PMS_P2;Temp;Humidity;BMP_temperature;BMP_pressure;BME280_temperature;BME280_humidity;BME280_pressure;Samples;Min_cycle;Max_cycle;Signal;HPM_P1;HPM_P2
2022/01/29 00:01:34;;;;;;;9.77;7.43;;;22.00;40.40;;;;;;5066519;28;20040;-61
2022/01/29 00:04:00;;;;;;;9.25;6.47;;;22.00;40.20;;;;;;5067711;28;20037;-61
2022/01/29 00:06:25;;;;;;;8.38;6.85;;;22.00;40.30;;;;;;5063068;28;20469;-61
2022/01/29 00:08:53;;;;;;;9.88;6.70;;;22.00;41.20;;;;;;5069368;28;20044;-61
2022/01/29 00:11:26;;;;;;;7.65;6.70;;;21.90;40.30;;;;;;5068131;28;21354;-60
2022/01/29 00:13:52;;;;;;;7.30;6.55;;;21.90;40.40;;;;;;5072929;28;20436;-61
2022/01/29 00:16:17;;;;;;;8.75;6.63;;;21.90;40.30;;;;;;5058953;28;20044;-60
2022/01/29 00:18:43;;;;;;;10.80;7.25;;;21.90;40.30;;;;;;5061992;28;20828;-60
2022/01/29 00:21:08;;;;;;;8.30;6.47;;;21.80;40.30;;;;;;5066971;28;20534;-60
2022/01/29 00:23:34;;;;;;;10.73;6.43;;;21.80;40.30;;;;;;5062857;28;20368;-60
2022/01/29 00:26:00;;;;;;;9.27;6.35;;;21.80;40.40;;;;;;5068628;28;20433;-60
2022/01/29 00:28:27;;;;;;;7.43;5.68;;;21.80;40.30;;;;;;5057267;28;20037;-61
2022/01/29 00:30:52;;;;;;;7.40;6.32;;;21.80;40.40;;;;;;5071045;28;20588;-60
2022/01/29 00:33:18;;;;;;;9.88;6.25;;;21.70;40.40;;;;;;5073011;28;20130;-61
2022/01/29 00:35:43;;;;;;;10.20;5.85;;;21.70;40.40;;;;;;5069557;28;20502;-60
2022/01/29 00:38:09;;;;;;;7.60;6.13;;;21.70;40.50;;;;;;5074328;28;20046;-60
2022/01/29 00:40:36;;;;;;;8.98;6.50;;;21.70;40.50;;;;;;5068895;28;20046;-61
2022/01/29 00:43:04;;;;;;;8.93;6.25;;;21.70;40.50;;;;;;5071957;28;20048;-60
2022/01/29 00:45:30;;;;;;;8.75;6.13;;;21.60;40.50;;;;;;5068919;28;20071;-60
2022/01/29 00:47:56;;;;;;;7.43;5.93;;;21.60;40.60;;;;;;5073088;28;20146;-60
2022/01/29 00:50:22;;;;;;;8.75;6.20;;;21.60;40.60;;;;;;5068753;28;20511;-60
2022/01/29 00:52:47;;;;;;;7.47;5.55;;;21.60;40.50;;;;;;5069754;28;21057;-61
2022/01/29 00:55:13;;;;;;;8.93;6.00;;;21.60;40.60;;;;;;5069460;28;20066;-60
2022/01/29 00:57:40;;;;;;;10.10;6.13;;;21.50;40.60;;;;;;5070218;28;20055;-61
2022/01/29 01:00:12;;;;;;;7.45;5.47;;;21.50;40.60;;;;;;5069176;28;20040;-61
2022/01/29 01:02:39;;;;;;;10.25;6.40;;;21.50;40.70;;;;;;5066823;28;20047;-60
2022/01/29 01:05:05;;;;;;;9.13;5.90;;;21.50;40.70;;;;;;5068765;28;20042;-61
2022/01/29 01:07:31;;;;;;;8.23;5.70;;;21.50;40.80;;;;;;5069710;28;20051;-61
2022/01/29 01:09:56;;;;;;;11.35;5.90;;;21.50;40.90;;;;;;5069340;28;20036;-61
2022/01/29 01:12:22;;;;;;;8.27;6.10;;;21.50;40.90;;;;;;5064647;28;20053;-61
2022/01/29 01:14:48;;;;;;;7.70;6.18;;;21.50;40.90;;;;;;5070055;28;20045;-61
2022/01/29 01:17:13;;;;;;;7.88;5.95;;;21.40;40.90;;;;;;5069472;28;20633;-61
2022/01/29 01:19:39;;;;;;;9.57;5.35;;;21.40;41.00;;;;;;5053169;28;20362;-61
2022/01/29 01:22:05;;;;;;;8.80;5.68;;;21.40;41.00;;;;;;5057141;28;20111;-61
2022/01/29 01:24:30;;;;;;;10.07;5.75;;;21.40;41.00;;;;;;5050326;28;20036;-61
2022/01/29 01:26:56;;;;;;;7.43;6.10;;;21.40;41.00;;;;;;5066794;28;20044;-61
2022/01/29 01:29:22;;;;;;;9.82;5.68;;;21.30;41.10;;;;;;5071300;28;20052;-61
2022/01/29 01:31:47;;;;;;;8.93;5.57;;;21.30;41.10;;;;;;5062974;28;20041;-61
2022/01/29 01:34:14;;;;;;;8.10;5.53;;;21.30;41.20;;;;;;5063766;28;20043;-61
2022/01/29 01:36:49;;;;;;;6.82;5.40;;;21.30;41.20;;;;;;5068964;28;20048;-61
2022/01/29 01:39:18;;;;;;;6.57;5.70;;;21.30;41.20;;;;;;5069274;28;20067;-61
2022/01/29 01:41:54;;;;;;;11.20;6.20;;;21.20;41.20;;;;;;5067161;28;20046;-61
2022/01/29 01:44:19;;;;;;;10.15;6.45;;;21.20;41.30;;;;;;5070168;28;20043;-61
2022/01/29 01:46:45;;;;;;;13.27;6.50;;;21.20;41.20;;;;;;5045347;28;20142;-61
2022/01/29 01:49:10;;;;;;;12.35;6.32;;;21.20;41.30;;;;;;5070070;28;20052;-61
2022/01/29 01:51:37;;;;;;;10.00;5.60;;;21.20;41.30;;;;;;5067197;28;20032;-61
2022/01/29 01:54:03;;;;;;;8.52;5.97;;;21.20;41.40;;;;;;5070314;28;20036;-61
2022/01/29 01:56:29;;;;;;;7.30;5.93;;;21.20;41.40;;;;;;5066827;28;20037;-61
2022/01/29 01:58:58;;;;;;;15.32;6.10;;;21.20;41.40;;;;;;5049295;28;20036;-61
2022/01/29 02:01:23;;;;;;;8.68;6.03;;;21.20;41.40;;;;;;5067549;28;20036;-61
2022/01/29 02:03:49;;;;;;;13.25;6.00;;;21.10;41.30;;;;;;5070042;28;20066;-61
2022/01/29 02:06:15;;;;;;;14.75;5.45;;;21.10;41.40;;;;;;5065186;28;20043;-61
2022/01/29 02:08:41;;;;;;;11.68;5.45;;;21.10;41.50;;;;;;5067168;28;20080;-61
2022/01/29 02:11:09;;;;;;;10.57;5.53;;;21.10;41.50;;;;;;5067669;28;20029;-61
2022/01/29 02:13:34;;;;;;;17.85;6.40;;;21.10;41.60;;;;;;5066682;28;20107;-61
2022/01/29 02:16:02;;;;;;;14.10;6.75;;;21.10;41.60;;;;;;5068625;28;20064;-61
2022/01/29 02:18:27;;;;;;;9.48;6.50;;;21.00;41.50;;;;;;5066057;28;20064;-61
2022/01/29 02:20:53;;;;;;;9.05;5.60;;;21.00;41.60;;;;;;5066263;28;20139;-61
2022/01/29 02:23:19;;;;;;;18.25;5.85;;;21.00;41.70;;;;;;5071271;28;20095;-61
2022/01/29 02:25:49;;;;;;;9.55;6.38;;;21.00;41.70;;;;;;5066158;28;20041;-61
2022/01/29 02:28:23;;;;;;;8.13;5.93;;;21.00;41.70;;;;;;5073164;28;20040;-61
2022/01/29 02:31:03;;;;;;;8.68;5.47;;;21.00;41.70;;;;;;5068350;28;20086;-61
2022/01/29 02:33:31;;;;;;;8.00;5.20;;;21.00;41.80;;;;;;5072089;28;20040;-61
2022/01/29 02:35:57;;;;;;;9.02;5.20;;;20.90;41.80;;;;;;5062942;28;20127;-61
2022/01/29 02:38:24;;;;;;;7.95;5.80;;;20.90;41.90;;;;;;5069621;28;20086;-61
2022/01/29 02:40:55;;;;;;;6.38;5.72;;;20.90;41.80;;;;;;5071392;28;20082;-61
2022/01/29 02:43:23;;;;;;;6.38;5.28;;;20.90;41.80;;;;;;5071476;28;20744;-61
2022/01/29 02:45:51;;;;;;;7.88;5.93;;;20.90;41.90;;;;;;5074057;28;20052;-61
2022/01/29 02:48:16;;;;;;;8.20;5.90;;;20.80;41.80;;;;;;5071929;28;20042;-61
2022/01/29 02:50:42;;;;;;;7.78;5.40;;;20.90;42.00;;;;;;5071653;28;20125;-61
2022/01/29 02:53:08;;;;;;;7.57;6.00;;;20.90;42.00;;;;;;5070861;28;20036;-61
2022/01/29 02:55:34;;;;;;;7.30;5.90;;;20.90;42.00;;;;;;5065602;28;20044;-61
2022/01/29 02:58:01;;;;;;;8.48;5.65;;;20.80;41.90;;;;;;5071668;28;20040;-61
2022/01/29 03:00:26;;;;;;;7.88;5.97;;;20.80;41.90;;;;;;5067078;28;20123;-61
2022/01/29 03:02:52;;;;;;;6.93;5.70;;;20.80;42.00;;;;;;5066243;28;20723;-61
2022/01/29 03:05:18;;;;;;;5.90;5.30;;;20.80;42.10;;;;;;5069719;28;20893;-61
2022/01/29 03:07:44;;;;;;;9.05;6.38;;;20.80;42.10;;;;;;5065034;28;20040;-61
2022/01/29 03:10:09;;;;;;;6.97;5.95;;;20.80;42.10;;;;;;5065590;28;20126;-61
2022/01/29 03:12:37;;;;;;;7.13;5.20;;;20.80;42.10;;;;;;5062387;28;20169;-61
2022/01/29 03:15:05;;;;;;;10.10;5.70;;;20.80;42.10;;;;;;5061461;28;20032;-61
2022/01/29 03:17:31;;;;;;;5.47;4.97;;;20.80;42.20;;;;;;5072480;28;20044;-61
2022/01/29 03:19:56;;;;;;;5.88;5.25;;;20.70;42.20;;;;;;5067434;28;20055;-61
2022/01/29 03:22:22;;;;;;;7.05;5.00;;;20.70;42.20;;;;;;5072506;28;20105;-61
2022/01/29 03:24:47;;;;;;;7.70;5.50;;;20.70;42.90;;;;;;5066913;28;20523;-61
2022/01/29 03:27:13;;;;;;;6.57;5.57;;;20.70;42.20;;;;;;5067492;28;20028;-61
2022/01/29 03:29:39;;;;;;;6.90;5.32;;;20.70;42.30;;;;;;5059194;28;20088;-61
2022/01/29 03:32:05;;;;;;;5.97;5.05;;;20.70;42.30;;;;;;5073160;28;20049;-61
2022/01/29 03:34:30;;;;;;;5.93;4.97;;;20.70;42.30;;;;;;5071136;28;20409;-61
2022/01/29 03:36:57;;;;;;;6.80;5.43;;;20.70;42.30;;;;;;5068273;28;20815;-61
2022/01/29 03:39:25;;;;;;;7.80;5.38;;;20.60;42.40;;;;;;5067834;28;20136;-61
2022/01/29 03:41:51;;;;;;;5.85;4.82;;;20.60;42.40;;;;;;5068981;28;20108;-61
2022/01/29 03:44:17;;;;;;;7.72;4.85;;;20.60;42.40;;;;;;5064742;28;20484;-61
2022/01/29 03:46:43;;;;;;;8.95;5.43;;;20.60;42.40;;;;;;5069158;28;20040;-61
2022/01/29 03:49:08;;;;;;;7.90;5.30;;;20.60;42.50;;;;;;5073461;28;20040;-61
2022/01/29 03:51:34;;;;;;;7.80;5.25;;;20.60;42.50;;;;;;5068956;28;20400;-61
2022/01/29 03:53:59;;;;;;;6.07;4.55;;;20.60;42.60;;;;;;5073595;28;20062;-61
2022/01/29 03:56:25;;;;;;;6.93;4.53;;;20.60;42.60;;;;;;5068322;28;20075;-60
2022/01/29 03:58:51;;;;;;;5.50;4.32;;;20.60;42.60;;;;;;5073592;28;20370;-61
2022/01/29 04:01:16;;;;;;;6.57;4.80;;;20.60;42.70;;;;;;5067171;28;20048;-61
2022/01/29 04:03:42;;;;;;;7.15;4.63;;;20.60;42.70;;;;;;5071423;28;20036;-61
2022/01/29 04:06:07;;;;;;;5.85;4.68;;;20.60;42.70;;;;;;5048005;28;20044;-62
2022/01/29 04:08:39;;;;;;;6.00;4.60;;;20.60;42.70;;;;;;5070925;28;20040;-62
2022/01/29 04:11:06;;;;;;;5.15;4.20;;;20.60;42.70;;;;;;5070838;28;20372;-61
2022/01/29 04:13:32;;;;;;;5.50;4.60;;;20.60;42.80;;;;;;5070180;28;20041;-62
2022/01/29 04:15:57;;;;;;;7.57;4.80;;;20.50;42.80;;;;;;5069148;28;20503;-62
2022/01/29 04:18:23;;;;;;;6.00;4.38;;;20.50;42.80;;;;;;5049248;28;20041;-61
2022/01/29 04:20:48;;;;;;;6.43;4.00;;;20.50;42.80;;;;;;5070467;28;20044;-62
2022/01/29 04:23:14;;;;;;;5.18;3.72;;;20.50;42.90;;;;;;5069528;28;20045;-62
2022/01/29 04:25:40;;;;;;;6.40;4.38;;;20.50;42.90;;;;;;5070105;28;20047;-62
2022/01/29 04:28:07;;;;;;;4.80;3.85;;;20.50;43.00;;;;;;5073324;28;20032;-62
2022/01/29 04:30:42;;;;;;;6.10;4.00;;;20.50;43.00;;;;;;5056833;28;20089;-62
2022/01/29 04:35:49;;;;;;;8.82;4.47;;;20.50;43.10;;;;;;5058878;28;20047;-60
2022/01/29 04:38:15;;;;;;;7.57;4.10;;;20.50;43.10;;;;;;5073774;28;20036;-62
2022/01/29 04:40:42;;;;;;;6.90;4.30;;;20.40;43.10;;;;;;5065213;28;20036;-62
2022/01/29 04:43:07;;;;;;;5.63;3.65;;;20.40;43.10;;;;;;5062494;28;20127;-62
2022/01/29 04:45:33;;;;;;;6.82;4.00;;;20.40;43.10;;;;;;5070257;28;20048;-62
2022/01/29 04:47:59;;;;;;;4.03;3.47;;;20.40;43.10;;;;;;5072213;28;20431;-61
2022/01/29 04:50:25;;;;;;;5.68;3.60;;;20.40;43.20;;;;;;5068925;28;20045;-62
2022/01/29 04:52:50;;;;;;;4.88;3.40;;;20.40;43.20;;;;;;5065649;28;20045;-62
2022/01/29 04:55:16;;;;;;;6.05;3.83;;;20.40;43.30;;;;;;5062667;28;20036;-61
2022/01/29 04:57:42;;;;;;;5.43;3.90;;;20.40;43.30;;;;;;5071903;28;20397;-62
2022/01/29 05:00:19;;;;;;;6.45;4.13;;;20.40;43.30;;;;;;5067939;28;20055;-61
2022/01/29 05:02:47;;;;;;;5.68;3.90;;;20.40;43.30;;;;;;5063685;28;20112;-61
2022/01/29 05:05:13;;;;;;;4.97;3.67;;;20.40;43.40;;;;;;5066604;28;20048;-61
2022/01/29 05:07:38;;;;;;;5.63;3.40;;;20.40;43.40;;;;;;5067928;28;20064;-62
2022/01/29 05:10:04;;;;;;;5.55;3.47;;;20.40;43.40;;;;;;5072116;28;20039;-61
2022/01/29 05:12:41;;;;;;;6.25;3.42;;;20.30;43.40;;;;;;5065079;28;20074;-61
2022/01/29 05:15:13;;;;;;;5.78;3.55;;;20.30;43.50;;;;;;5067508;28;20384;-61
2022/01/29 05:28:36;;;;;;;4.18;3.42;;;20.30;43.60;;;;;;5068020;28;20399;-61
2022/01/29 05:31:02;;;;;;;4.95;3.42;;;20.30;43.60;;;;;;5068969;28;20044;-61
2022/01/29 05:33:27;;;;;;;4.50;3.15;;;20.30;43.70;;;;;;5055103;28;20036;-61
2022/01/29 05:35:53;;;;;;;4.57;3.20;;;20.30;43.70;;;;;;5066083;28;20043;-62
2022/01/29 05:38:18;;;;;;;5.57;3.30;;;20.30;43.70;;;;;;5070743;28;20076;-61
2022/01/29 05:40:44;;;;;;;4.53;3.60;;;20.20;43.70;;;;;;5043639;28;20104;-61
2022/01/29 05:43:10;;;;;;;4.47;3.03;;;20.20;43.70;;;;;;5042933;28;20123;-62
2022/01/29 05:45:36;;;;;;;5.75;2.97;;;20.20;43.70;;;;;;5061187;28;20594;-61
2022/01/29 05:48:01;;;;;;;4.57;3.40;;;20.20;43.70;;;;;;5069373;28;20064;-61
2022/01/29 05:50:27;;;;;;;4.07;2.95;;;20.20;43.80;;;;;;5070118;28;20044;-62
2022/01/29 05:52:52;;;;;;;4.20;2.72;;;20.20;43.80;;;;;;5062656;28;20037;-61
2022/01/29 05:55:18;;;;;;;5.53;3.22;;;20.20;43.80;;;;;;5064519;28;20028;-62
2022/01/29 05:57:44;;;;;;;7.18;3.50;;;20.20;43.90;;;;;;5067810;28;20120;-62
2022/01/29 06:00:10;;;;;;;4.28;3.00;;;20.20;43.90;;;;;;5069053;28;20036;-61
2022/01/29 06:02:36;;;;;;;4.53;3.03;;;20.20;43.90;;;;;;5066678;28;20044;-61
2022/01/29 06:05:02;;;;;;;4.57;2.80;;;20.20;43.90;;;;;;5060532;28;20048;-61
2022/01/29 06:07:27;;;;;;;3.80;2.85;;;20.20;44.00;;;;;;5063742;28;20079;-61
2022/01/29 06:09:53;;;;;;;3.97;2.92;;;20.20;44.00;;;;;;5069820;28;20053;-62
2022/01/29 06:12:18;;;;;;;3.65;2.83;;;20.20;44.00;;;;;;5067144;28;20039;-61
2022/01/29 06:14:44;;;;;;;4.93;2.60;;;20.20;44.00;;;;;;5066699;28;20074;-61
2022/01/29 06:17:11;;;;;;;5.20;2.72;;;20.20;44.00;;;;;;5054166;28;20055;-61
2022/01/29 06:19:36;;;;;;;3.10;2.30;;;20.20;44.00;;;;;;5068694;28;20044;-62
2022/01/29 06:22:08;;;;;;;5.28;3.10;;;20.20;44.10;;;;;;5069502;28;20040;-62
2022/01/29 06:24:33;;;;;;;3.50;2.38;;;20.20;44.10;;;;;;5067641;28;20215;-61
2022/01/29 06:26:59;;;;;;;5.28;2.80;;;20.20;44.00;;;;;;5068127;28;20052;-62
2022/01/29 06:29:24;;;;;;;3.88;2.38;;;20.20;44.10;;;;;;5066945;28;20040;-62
2022/01/29 06:31:50;;;;;;;4.78;2.83;;;20.20;44.10;;;;;;5069675;28;20471;-62
2022/01/29 06:34:16;;;;;;;2.60;2.10;;;20.20;44.20;;;;;;5064530;28;20044;-61
2022/01/29 06:36:41;;;;;;;3.33;2.30;;;20.20;44.20;;;;;;5069908;28;20044;-61
2022/01/29 06:39:07;;;;;;;5.10;2.72;;;20.20;44.20;;;;;;5059257;28;20024;-62
2022/01/29 06:41:33;;;;;;;5.55;2.20;;;20.20;44.20;;;;;;5054424;28;20487;-61
2022/01/29 06:43:58;;;;;;;4.70;2.65;;;20.20;44.20;;;;;;5066427;28;20478;-62
2022/01/29 06:46:24;;;;;;;3.58;2.13;;;20.20;44.20;;;;;;5064604;28;20054;-61
2022/01/29 06:48:49;;;;;;;4.10;2.15;;;20.20;44.20;;;;;;5059527;28;20033;-61
2022/01/29 06:51:17;;;;;;;6.38;2.25;;;20.20;44.20;;;;;;5058351;28;20056;-62
2022/01/29 06:53:42;;;;;;;4.32;2.20;;;20.30;44.30;;;;;;5069575;28;20098;-61
2022/01/29 06:56:08;;;;;;;4.13;2.35;;;20.30;44.20;;;;;;5065254;28;20036;-62
2022/01/29 06:58:34;;;;;;;4.30;1.92;;;20.30;44.30;;;;;;5071451;28;20383;-61
2022/01/29 07:01:00;;;;;;;3.88;2.25;;;20.30;44.20;;;;;;5060059;28;20131;-62
2022/01/29 07:03:25;;;;;;;3.50;2.10;;;20.30;44.20;;;;;;5064473;28;20103;-62
2022/01/29 07:05:51;;;;;;;4.60;1.90;;;20.30;44.20;;;;;;5063955;28;20049;-62
2022/01/29 07:08:16;;;;;;;2.78;1.80;;;20.30;44.20;;;;;;5066188;28;20493;-61
2022/01/29 07:10:44;;;;;;;2.97;2.03;;;20.30;44.20;;;;;;5068567;28;21267;-61
2022/01/29 07:13:10;;;;;;;4.60;2.10;;;20.40;44.20;;;;;;5069907;28;20044;-61
2022/01/29 07:15:35;;;;;;;3.03;1.98;;;20.40;44.30;;;;;;5073506;28;20044;-61
2022/01/29 07:18:01;;;;;;;3.10;1.75;;;20.40;44.20;;;;;;5067923;28;20059;-61
2022/01/29 07:20:26;;;;;;;4.40;1.67;;;20.40;44.20;;;;;;5072381;28;20028;-62
2022/01/29 07:22:52;;;;;;;2.15;1.77;;;20.40;44.30;;;;;;5066755;28;20029;-61
2022/01/29 07:25:17;;;;;;;4.05;2.20;;;20.40;44.50;;;;;;5069958;28;20492;-61
2022/01/29 07:27:43;;;;;;;4.75;1.85;;;20.40;44.60;;;;;;5069974;28;20093;-61
2022/01/29 07:30:09;;;;;;;3.92;1.80;;;20.40;44.80;;;;;;5076177;28;20118;-61
2022/01/29 07:32:35;;;;;;;3.05;1.60;;;20.40;45.00;;;;;;5069270;28;20029;-62
2022/01/29 07:35:00;;;;;;;2.47;1.60;;;20.40;45.10;;;;;;5085747;28;20044;-62
2022/01/29 07:37:26;;;;;;;5.50;1.80;;;20.40;45.10;;;;;;5068395;28;20093;-61
2022/01/29 07:39:51;;;;;;;2.78;1.80;;;20.40;45.20;;;;;;5068390;28;20047;-67
2022/01/29 07:42:17;;;;;;;4.07;1.70;;;20.40;45.90;;;;;;5067386;28;20654;-66
2022/01/29 07:44:42;;;;;;;2.95;1.80;;;20.40;45.80;;;;;;5067458;28;20889;-65
2022/01/29 07:47:08;;;;;;;4.22;2.03;;;20.40;45.90;;;;;;5071477;28;20032;-68
2022/01/29 07:49:33;;;;;;;3.95;1.70;;;20.40;45.80;;;;;;5049563;28;20044;-66
2022/01/29 07:51:59;;;;;;;8.00;2.45;;;20.50;46.10;;;;;;5065375;28;20047;-67
2022/01/29 07:54:25;;;;;;;3.22;1.90;;;20.50;46.10;;;;;;5066822;28;20044;-63
2022/01/29 07:56:50;;;;;;;2.88;1.95;;;20.50;46.10;;;;;;5061219;28;20561;-63
2022/01/29 07:59:16;;;;;;;3.47;1.83;;;20.50;46.20;;;;;;5064264;28;20036;-65
2022/01/29 08:01:41;;;;;;;4.78;1.95;;;20.50;46.30;;;;;;5066228;28;20040;-65
2022/01/29 08:04:07;;;;;;;3.08;1.77;;;20.50;46.30;;;;;;5053699;28;20507;-66
2022/01/29 08:06:32;;;;;;;4.72;1.95;;;20.50;46.40;;;;;;5069933;28;20048;-66
2022/01/29 08:08:58;;;;;;;4.30;2.00;;;20.50;46.50;;;;;;5054986;28;20147;-65
2022/01/29 08:11:24;;;;;;;3.70;1.70;;;20.50;47.10;;;;;;5063254;28;20507;-66
2022/01/29 08:13:50;;;;;;;4.20;2.00;;;20.50;46.50;;;;;;5065720;28;20062;-65
2022/01/29 08:16:15;;;;;;;3.00;1.60;;;20.60;46.70;;;;;;5047456;28;20040;-67
2022/01/29 08:18:43;;;;;;;2.28;1.35;;;20.60;47.10;;;;;;5067098;28;20448;-65
2022/01/29 08:21:16;;;;;;;3.75;1.70;;;20.60;46.80;;;;;;5064587;28;20499;-67
2022/01/29 08:23:42;;;;;;;3.97;1.90;;;20.60;47.00;;;;;;5082158;28;20044;-66
2022/01/29 08:26:08;;;;;;;3.22;2.20;;;20.60;47.10;;;;;;5064839;28;20044;-67
2022/01/29 08:28:34;;;;;;;3.97;1.80;;;20.60;47.20;;;;;;5066918;28;20036;-66
2022/01/29 08:30:59;;;;;;;4.03;1.80;;;20.60;47.30;;;;;;5069127;28;20040;-66
2022/01/29 08:33:25;;;;;;;3.63;1.60;;;20.70;47.40;;;;;;5067271;28;20133;-66
2022/01/29 08:35:52;;;;;;;2.67;1.52;;;20.70;47.40;;;;;;5066194;28;20041;-66
2022/01/29 08:38:18;;;;;;;2.33;1.67;;;20.70;47.50;;;;;;5065831;28;20047;-65
2022/01/29 08:40:43;;;;;;;4.45;1.75;;;20.70;47.60;;;;;;5065318;28;20056;-65
2022/01/29 08:43:09;;;;;;;4.25;1.90;;;20.70;47.50;;;;;;5061742;28;20051;-65
2022/01/29 08:45:35;;;;;;;2.85;1.48;;;20.70;47.40;;;;;;5068418;28;20058;-65
2022/01/29 08:48:00;;;;;;;2.30;1.65;;;20.70;47.50;;;;;;5048742;28;20947;-64
2022/01/29 08:50:26;;;;;;;3.65;1.60;;;20.70;47.70;;;;;;5066181;28;20400;-67
2022/01/29 08:52:51;;;;;;;3.30;1.63;;;20.70;47.50;;;;;;5064985;28;20476;-67
2022/01/29 08:55:17;;;;;;;4.00;2.10;;;20.70;47.60;;;;;;5066610;28;20503;-68
2022/01/29 08:57:43;;;;;;;3.92;1.50;;;20.70;47.60;;;;;;5065368;28;20048;-66
2022/01/29 09:00:11;;;;;;;2.53;1.70;;;20.70;47.60;;;;;;5065443;28;20719;-65
2022/01/29 09:02:37;;;;;;;5.57;1.80;;;20.70;47.60;;;;;;5066369;28;20044;-66
2022/01/29 09:05:04;;;;;;;3.70;1.35;;;20.80;47.60;;;;;;5059864;28;20053;-66
2022/01/29 09:07:29;;;;;;;4.25;1.40;;;20.80;47.70;;;;;;5065668;28;20751;-65
2022/01/29 09:09:55;;;;;;;3.63;1.55;;;20.80;47.80;;;;;;5064536;28;20045;-66
2022/01/29 09:12:21;;;;;;;3.78;1.95;;;20.80;48.70;;;;;;5065824;28;20460;-66
2022/01/29 09:14:47;;;;;;;4.60;1.90;;;20.80;48.20;;;;;;5079020;28;20484;-66
2022/01/29 09:17:13;;;;;;;5.13;1.65;;;20.80;48.40;;;;;;5067021;28;20044;-64
2022/01/29 09:19:38;;;;;;;4.05;1.58;;;20.80;48.50;;;;;;5049605;28;20116;-64
2022/01/29 09:22:04;;;;;;;3.40;1.80;;;20.80;48.70;;;;;;5067860;28;20101;-66
2022/01/29 09:24:29;;;;;;;3.10;1.30;;;20.80;48.90;;;;;;5065043;28;20039;-65
2022/01/29 09:26:55;;;;;;;2.78;1.63;;;20.80;49.00;;;;;;5057636;28;20036;-65
2022/01/29 09:29:21;;;;;;;2.75;1.27;;;20.80;49.00;;;;;;5067093;28;20101;-64
2022/01/29 09:31:46;;;;;;;9.25;2.20;;;20.90;49.10;;;;;;5056015;28;20897;-64
2022/01/29 09:34:12;;;;;;;4.60;1.77;;;20.90;49.10;;;;;;5052094;28;20594;-65
2022/01/29 09:36:38;;;;;;;5.97;1.67;;;20.90;49.20;;;;;;5062951;28;20051;-66
2022/01/29 09:39:03;;;;;;;2.85;1.58;;;20.90;49.30;;;;;;5060733;28;20036;-65
2022/01/29 09:41:29;;;;;;;3.17;1.27;;;20.90;49.30;;;;;;5064947;28;20032;-63
2022/01/29 09:43:56;;;;;;;2.22;1.50;;;20.90;49.20;;;;;;5060038;28;20040;-63
2022/01/29 09:46:22;;;;;;;4.55;1.45;;;20.90;49.20;;;;;;5065585;28;20155;-64
2022/01/29 09:48:48;;;;;;;3.25;1.42;;;20.90;49.20;;;;;;5051967;28;20403;-65
2022/01/29 09:51:15;;;;;;;4.35;1.55;;;20.90;49.10;;;;;;5059543;28;20045;-65
2022/01/29 09:53:45;;;;;;;3.28;1.55;;;20.90;49.00;;;;;;5070186;28;20048;-63
2022/01/29 09:56:14;;;;;;;2.25;1.33;;;20.90;49.00;;;;;;5069623;28;20040;-64
2022/01/29 09:58:43;;;;;;;5.05;1.50;;;20.90;48.90;;;;;;5072286;28;20064;-63
2022/01/29 10:01:09;;;;;;;4.68;1.35;;;20.90;48.80;;;;;;5060590;28;20105;-64
2022/01/29 10:03:35;;;;;;;8.20;1.92;;;20.90;48.70;;;;;;5069061;28;20040;-64
2022/01/29 10:06:02;;;;;;;5.18;1.20;;;20.90;48.70;;;;;;5070403;28;20548;-64
2022/01/29 10:08:29;;;;;;;5.28;1.38;;;20.90;48.70;;;;;;5065642;28;20041;-64
2022/01/29 10:10:57;;;;;;;5.18;1.30;;;20.90;48.70;;;;;;5070099;28;20029;-66
2022/01/29 10:13:40;;;;;;;2.63;1.33;;;21.00;48.60;;;;;;5064768;28;20057;-65
2022/01/29 10:16:19;;;;;;;3.75;1.45;;;20.90;48.50;;;;;;5063670;28;20036;-67
2022/01/29 10:18:57;;;;;;;2.58;1.10;;;20.90;48.50;;;;;;5063910;28;20045;-66
2022/01/29 10:21:34;;;;;;;2.63;1.20;;;20.90;48.40;;;;;;5047820;28;20101;-65
2022/01/29 10:24:14;;;;;;;1.48;0.93;;;20.90;48.30;;;;;;5065260;28;20067;-65
2022/01/29 10:26:42;;;;;;;5.55;1.50;;;20.90;48.20;;;;;;5057852;28;20111;-65
2022/01/29 10:29:20;;;;;;;5.43;1.52;;;20.90;48.20;;;;;;5063877;28;20048;-65
2022/01/29 10:31:47;;;;;;;2.60;1.25;;;20.90;48.10;;;;;;5068231;28;20032;-65
2022/01/29 10:34:21;;;;;;;2.90;1.00;;;20.90;48.20;;;;;;5066107;28;20121;-65
2022/01/29 10:37:16;;;;;;;4.53;1.27;;;20.90;48.20;;;;;;5061075;28;20047;-65
2022/01/29 10:39:44;;;;;;;3.90;1.30;;;21.00;48.30;;;;;;5066631;28;20594;-64
2022/01/29 10:42:27;;;;;;;5.03;1.17;;;20.90;48.30;;;;;;5061170;28;20033;-63
2022/01/29 10:45:02;;;;;;;3.22;1.15;;;20.90;48.50;;;;;;5044271;28;20040;-64
2022/01/29 10:47:30;;;;;;;5.00;1.25;;;20.90;48.50;;;;;;5066667;28;20041;-64
2022/01/29 10:50:05;;;;;;;5.57;1.20;;;20.90;48.60;;;;;;5072349;28;20047;-64
2022/01/29 10:52:35;;;;;;;3.50;1.58;;;20.90;48.60;;;;;;5070510;28;20044;-64
2022/01/29 10:55:07;;;;;;;3.13;1.20;;;20.90;48.50;;;;;;5073159;28;20041;-68
2022/01/29 10:57:38;;;;;;;5.22;1.75;;;20.90;48.30;;;;;;5069185;28;20520;-64
2022/01/29 11:00:15;;;;;;;5.57;1.17;;;20.90;48.20;;;;;;5072893;28;20130;-64
2022/01/29 11:02:40;;;;;;;3.65;1.15;;;20.90;48.20;;;;;;5055762;28;20061;-63
2022/01/29 11:05:06;;;;;;;3.88;1.10;;;20.90;48.20;;;;;;5069786;28;20614;-65
2022/01/29 11:07:34;;;;;;;6.38;1.55;;;20.90;48.50;;;;;;5066963;28;20076;-64
2022/01/29 11:10:02;;;;;;;3.80;1.05;;;20.90;48.10;;;;;;5068439;28;20040;-65
2022/01/29 11:12:30;;;;;;;4.28;1.33;;;20.90;48.10;;;;;;5070329;28;20134;-64
2022/01/29 11:15:00;;;;;;;5.18;1.50;;;20.90;48.20;;;;;;5072364;28;21116;-64
2022/01/29 11:17:35;;;;;;;2.93;1.17;;;20.90;48.20;;;;;;5074423;28;20089;-65
2022/01/29 11:20:01;;;;;;;2.97;0.90;;;20.90;48.30;;;;;;5068211;28;20420;-64
2022/01/29 11:22:39;;;;;;;3.33;0.90;;;20.90;48.40;;;;;;5073027;28;20043;-64
2022/01/29 11:25:11;;;;;;;4.40;1.45;;;20.90;48.40;;;;;;5071544;28;20062;-65
2022/01/29 11:27:38;;;;;;;6.18;1.23;;;20.90;48.40;;;;;;5074753;28;20059;-66
2022/01/29 11:30:09;;;;;;;3.70;1.20;;;20.90;48.40;;;;;;5071778;28;20102;-65
2022/01/29 11:32:47;;;;;;;3.40;1.10;;;20.90;48.30;;;;;;5072189;28;20551;-67
2022/01/29 11:35:17;;;;;;;3.22;0.98;;;20.90;48.40;;;;;;5072016;28;20052;-65
2022/01/29 11:37:47;;;;;;;3.07;1.30;;;20.90;48.40;;;;;;5070504;28;20044;-64
2022/01/29 11:40:34;;;;;;;3.53;1.48;;;20.90;48.30;;;;;;5071463;28;20041;-66
2022/01/29 11:43:13;;;;;;;3.72;1.13;;;20.90;48.40;;;;;;5060651;28;20074;-65
2022/01/29 11:45:53;;;;;;;3.25;1.17;;;20.90;48.30;;;;;;5067043;28;20036;-65
2022/01/29 11:48:19;;;;;;;2.85;1.13;;;20.90;48.40;;;;;;5068665;28;20044;-65
2022/01/29 11:50:47;;;;;;;4.15;1.35;;;20.90;48.30;;;;;;5068530;28;20958;-65
2022/01/29 11:53:14;;;;;;;3.58;1.10;;;20.90;48.40;;;;;;5067407;28;20071;-65
2022/01/29 11:55:50;;;;;;;3.28;1.15;;;20.90;48.30;;;;;;5063978;28;20036;-67
2022/01/29 11:58:27;;;;;;;2.92;1.20;;;20.90;48.30;;;;;;5069926;28;20081;-66
2022/01/29 12:00:57;;;;;;;3.28;0.90;;;20.90;48.20;;;;;;5062144;28;20045;-65
2022/01/29 12:03:36;;;;;;;3.70;1.10;;;20.90;48.20;;;;;;5040938;28;20046;-63
2022/01/29 12:09:03;;;;;;;3.78;1.20;;;20.90;48.00;;;;;;5068439;28;20067;-65
2022/01/29 12:11:29;;;;;;;2.92;1.60;;;20.90;48.00;;;;;;5059222;28;20064;-64
2022/01/29 12:14:12;;;;;;;3.13;1.30;;;20.80;47.90;;;;;;5055727;28;20448;-65
2022/01/29 12:16:58;;;;;;;5.03;1.52;;;20.90;47.90;;;;;;5071217;28;20780;-62
2022/01/29 12:19:33;;;;;;;3.72;1.27;;;20.80;47.90;;;;;;5061607;28;20045;-64
2022/01/29 12:22:00;;;;;;;5.07;1.30;;;20.80;48.10;;;;;;5069538;28;20028;-64
2022/01/29 12:24:25;;;;;;;6.90;1.27;;;20.90;48.30;;;;;;5069615;28;20035;-63
2022/01/29 12:26:58;;;;;;;7.32;1.38;;;20.90;48.20;;;;;;5061236;28;20033;-64
2022/01/29 12:29:23;;;;;;;4.57;1.40;;;20.90;48.10;;;;;;5069226;28;20464;-64
2022/01/29 12:31:53;;;;;;;4.68;1.38;;;20.90;48.10;;;;;;5083036;28;20040;-64
2022/01/29 12:34:20;;;;;;;2.67;1.50;;;20.90;48.20;;;;;;5067526;28;20038;-65
2022/01/29 12:36:47;;;;;;;4.72;1.55;;;20.90;48.20;;;;;;5069647;28;20067;-63
2022/01/29 12:39:21;;;;;;;4.95;1.42;;;20.90;48.40;;;;;;5071369;28;20047;-62
2022/01/29 12:42:04;;;;;;;4.75;1.50;;;20.90;48.50;;;;;;5063210;28;20086;-63
2022/01/29 12:44:29;;;;;;;4.53;1.77;;;20.90;48.60;;;;;;5068301;28;20058;-63
2022/01/29 12:46:55;;;;;;;6.10;1.73;;;20.90;48.70;;;;;;5068400;28;20161;-64
2022/01/29 12:49:21;;;;;;;4.47;1.60;;;20.80;48.80;;;;;;5073262;28;20117;-63
2022/01/29 12:51:53;;;;;;;3.50;1.45;;;20.90;49.60;;;;;;5064523;28;20053;-65
2022/01/29 12:54:20;;;;;;;4.50;1.60;;;20.90;48.90;;;;;;5071976;28;20038;-64
2022/01/29 12:56:46;;;;;;;4.18;1.35;;;20.80;48.80;;;;;;5065466;28;20083;-64
2022/01/29 12:59:13;;;;;;;4.47;1.60;;;20.80;48.80;;;;;;5068542;28;20496;-64
2022/01/29 13:01:43;;;;;;;4.95;1.70;;;20.80;48.70;;;;;;5064455;28;20740;-62
2022/01/29 13:04:12;;;;;;;3.90;1.60;;;20.80;48.70;;;;;;5070025;28;20040;-65